createdAt,value
2018-03-18T00:00:13.820Z,-0.70
2018-03-18T00:01:18.870Z,-0.60
2018-03-18T00:02:23.849Z,-0.50
2018-03-18T00:03:29.536Z,-0.50
2018-03-18T00:04:34.737Z,-0.50
2018-03-18T00:05:39.807Z,-0.50
2018-03-18T00:06:48.385Z,-0.60
2018-03-18T00:07:54.753Z,-0.60
2018-03-18T00:09:00.285Z,-0.60
2018-03-18T00:10:05.053Z,-0.70
2018-03-18T00:11:11.780Z,-0.70
2018-03-18T00:12:19.084Z,-0.70
2018-03-18T00:13:25.741Z,-0.80
2018-03-18T00:14:31.948Z,-0.80
2018-03-18T00:15:38.005Z,-0.80
2018-03-18T00:16:46.744Z,-0.70
2018-03-18T00:17:52.888Z,-0.70
2018-03-18T00:19:00.860Z,-0.70
2018-03-18T00:20:07.957Z,-0.70
2018-03-18T00:21:16.730Z,-0.70
2018-03-18T00:22:22.673Z,-0.70
2018-03-18T00:23:29.064Z,-0.60
2018-03-18T00:24:34.873Z,-0.60
2018-03-18T00:25:39.693Z,-0.60
2018-03-18T00:26:45.775Z,-0.60
2018-03-18T00:27:51.462Z,-0.50
2018-03-18T00:28:56.337Z,-0.50
2018-03-18T00:30:03.785Z,-0.60
2018-03-18T00:31:08.788Z,-0.60
2018-03-18T00:32:14.299Z,-0.60
2018-03-18T00:33:19.203Z,-0.60
2018-03-18T00:34:24.309Z,-0.50
2018-03-18T00:35:30.127Z,-0.50
2018-03-18T00:36:35.341Z,-0.50
2018-03-18T00:37:41.563Z,-0.60
2018-03-18T00:38:47.855Z,-0.50
2018-03-18T00:39:53.280Z,-0.60
2018-03-18T00:41:00.417Z,-0.70
2018-03-18T00:42:06.816Z,-0.60
2018-03-18T00:43:12.760Z,-0.70
2018-03-18T00:44:18.913Z,-0.60
2018-03-18T00:45:24.137Z,-0.60
2018-03-18T00:46:29.201Z,-0.60
2018-03-18T00:47:34.645Z,-0.60
2018-03-18T00:48:41.137Z,-0.60
2018-03-18T00:49:48.721Z,-0.60
2018-03-18T00:50:53.592Z,-0.60
2018-03-18T00:52:03.819Z,-0.60
2018-03-18T00:53:09.781Z,-0.70
2018-03-18T00:54:15.874Z,-0.70
2018-03-18T00:55:20.783Z,-0.70
2018-03-18T00:56:26.533Z,-0.70
2018-03-18T00:57:32.489Z,-0.70
2018-03-18T00:58:38.394Z,-0.70
2018-03-18T00:59:44.829Z,-0.70
2018-03-18T01:00:49.992Z,-0.70
2018-03-18T01:01:55.215Z,-0.60
2018-03-18T01:03:01.360Z,-0.70
2018-03-18T01:04:07.270Z,-0.60
2018-03-18T01:05:12.805Z,-0.60
2018-03-18T01:06:18.548Z,-0.60
2018-03-18T01:07:24.241Z,-0.60
2018-03-18T01:08:31.610Z,-0.70
2018-03-18T01:09:36.848Z,-0.70
2018-03-18T01:10:44.713Z,-0.60
2018-03-18T01:11:54.524Z,-0.60
2018-03-18T01:12:59.853Z,-0.60
2018-03-18T01:14:05.248Z,-0.60
2018-03-18T01:15:12.842Z,-0.60
2018-03-18T01:16:22.910Z,-0.50
2018-03-18T01:17:28.130Z,-0.50
2018-03-18T01:18:35.898Z,-0.50
2018-03-18T01:19:41.249Z,-0.50
2018-03-18T01:20:47.388Z,-0.60
2018-03-18T01:21:52.755Z,-0.60
2018-03-18T01:22:59.149Z,-0.60
2018-03-18T01:24:04.833Z,-0.60
2018-03-18T01:25:13.732Z,-0.70
2018-03-18T01:26:22.206Z,-0.60
2018-03-18T01:27:30.257Z,-0.60
2018-03-18T01:28:35.913Z,-0.70
2018-03-18T01:29:42.115Z,-0.70
2018-03-18T01:30:50.511Z,-0.70
2018-03-18T01:31:56.204Z,-0.70
2018-03-18T01:33:01.553Z,-0.60
2018-03-18T01:34:08.599Z,-0.60
2018-03-18T01:35:14.590Z,-0.60
2018-03-18T01:36:20.564Z,-0.60
2018-03-18T01:37:26.517Z,-0.60
2018-03-18T01:38:31.489Z,-0.60
2018-03-18T01:39:36.684Z,-0.70
2018-03-18T01:40:43.140Z,-0.60
2018-03-18T01:41:49.333Z,-0.60
2018-03-18T01:42:56.086Z,-0.60
2018-03-18T01:44:03.630Z,-0.60
2018-03-18T01:45:10.318Z,-0.60
2018-03-18T01:46:16.559Z,-0.60
2018-03-18T01:47:23.278Z,-0.60
2018-03-18T01:48:29.163Z,-0.40
2018-03-18T01:49:35.979Z,-0.40
2018-03-18T01:50:43.755Z,-0.40
2018-03-18T01:51:52.006Z,-0.30
2018-03-18T01:53:07.381Z,-0.20
2018-03-18T01:54:14.465Z,-0.20
2018-03-18T01:55:21.234Z,-0.30
2018-03-18T01:56:28.576Z,-0.30
2018-03-18T01:57:35.680Z,-0.30
2018-03-18T01:58:43.831Z,-0.30
2018-03-18T01:59:50.088Z,-0.40
2018-03-18T02:00:56.262Z,-0.40
2018-03-18T02:02:01.843Z,-0.20
2018-03-18T02:03:07.658Z,-0.20
2018-03-18T02:04:12.929Z,0.00
2018-03-18T02:05:18.205Z,0.10
2018-03-18T02:06:23.600Z,0.10
2018-03-18T02:07:28.966Z,0.10
2018-03-18T02:08:34.086Z,0.00
2018-03-18T02:09:39.184Z,0.20
2018-03-18T02:10:45.494Z,0.10
2018-03-18T02:11:51.096Z,0.00
2018-03-18T02:12:56.631Z,-0.20
2018-03-18T02:14:01.749Z,-0.20
2018-03-18T02:15:07.280Z,-0.30
2018-03-18T02:16:12.539Z,-0.20
2018-03-18T02:17:17.674Z,-0.30
2018-03-18T02:18:23.667Z,-0.30
2018-03-18T02:19:28.812Z,-0.30
2018-03-18T02:20:34.881Z,0.00
2018-03-18T02:21:40.157Z,0.00
2018-03-18T02:22:45.262Z,0.10
2018-03-18T02:23:51.039Z,0.00
2018-03-18T02:24:56.174Z,0.00
2018-03-18T02:26:00.988Z,0.00
2018-03-18T02:27:06.622Z,-0.20
2018-03-18T02:28:11.000Z,-0.10
2018-03-18T02:29:17.454Z,-0.20
2018-03-18T02:30:23.404Z,-0.20
2018-03-18T02:31:28.748Z,-0.20
2018-03-18T02:32:33.551Z,-0.10
2018-03-18T02:33:39.481Z,-0.10
2018-03-18T02:34:44.853Z,-0.20
2018-03-18T02:35:49.217Z,-0.10
2018-03-18T02:36:54.449Z,0.00
2018-03-18T02:37:59.493Z,0.00
2018-03-18T02:39:06.456Z,0.00
2018-03-18T02:40:11.804Z,0.10
2018-03-18T02:41:16.519Z,0.10
2018-03-18T02:42:21.214Z,0.20
2018-03-18T02:43:26.914Z,-0.10
2018-03-18T02:44:31.825Z,-0.10
2018-03-18T02:45:36.286Z,-0.30
2018-03-18T02:46:41.698Z,-0.40
2018-03-18T02:47:47.234Z,-0.50
2018-03-18T02:48:51.923Z,-0.40
2018-03-18T02:49:56.807Z,-0.40
2018-03-18T02:51:01.440Z,-0.30
2018-03-18T02:52:06.364Z,-0.30
2018-03-18T02:53:11.220Z,-0.30
2018-03-18T02:54:15.979Z,-0.20
2018-03-18T02:55:21.191Z,-0.20
2018-03-18T02:56:26.587Z,-0.20
2018-03-18T02:57:31.182Z,-0.20
2018-03-18T02:58:36.280Z,-0.20
2018-03-18T02:59:41.673Z,-0.20
2018-03-18T03:00:46.251Z,-0.20
2018-03-18T03:01:56.537Z,-0.30
2018-03-18T03:03:01.836Z,-0.40
2018-03-18T03:04:06.821Z,-0.40
2018-03-18T03:05:12.099Z,-0.40
2018-03-18T03:06:16.827Z,-0.40
2018-03-18T03:07:21.577Z,-0.40
2018-03-18T03:08:26.118Z,-0.40
2018-03-18T03:09:31.922Z,-0.40
2018-03-18T03:10:36.919Z,-0.40
2018-03-18T03:11:41.613Z,-0.50
2018-03-18T03:12:47.106Z,-0.50
2018-03-18T03:13:52.995Z,-0.50
2018-03-18T03:14:58.103Z,-0.50
2018-03-18T03:16:02.677Z,-0.50
2018-03-18T03:17:08.109Z,-0.50
2018-03-18T03:18:12.484Z,-0.60
2018-03-18T03:19:17.296Z,-0.50
2018-03-18T03:20:21.977Z,-0.40
2018-03-18T03:21:27.381Z,-0.40
2018-03-18T03:22:31.981Z,-0.40
2018-03-18T03:23:36.843Z,-0.40
2018-03-18T03:24:42.903Z,-0.40
2018-03-18T03:25:47.829Z,-0.40
2018-03-18T03:26:52.473Z,-0.50
2018-03-18T03:27:57.226Z,-0.50
2018-03-18T03:29:02.068Z,-0.50
2018-03-18T03:30:07.145Z,-0.50
2018-03-18T03:31:12.356Z,-0.50
2018-03-18T03:32:16.746Z,-0.50
2018-03-18T03:33:21.133Z,-0.50
2018-03-18T03:34:26.819Z,-0.50
2018-03-18T03:35:31.772Z,-0.50
2018-03-18T03:36:36.232Z,-0.50
2018-03-18T03:37:40.635Z,-0.50
2018-03-18T03:38:45.471Z,-0.50
2018-03-18T03:39:50.213Z,-0.60
2018-03-18T03:40:54.951Z,-0.60
2018-03-18T03:41:59.720Z,-0.60
2018-03-18T03:43:04.291Z,-0.60
2018-03-18T03:44:09.456Z,-0.60
2018-03-18T03:45:13.879Z,-0.60
2018-03-18T03:46:18.924Z,-0.50
2018-03-18T03:47:23.317Z,-0.50
2018-03-18T03:48:27.844Z,-0.50
2018-03-18T03:49:33.115Z,-0.50
2018-03-18T03:50:38.498Z,-0.50
2018-03-18T03:51:43.529Z,-0.60
2018-03-18T03:52:47.866Z,-0.60
2018-03-18T03:53:53.147Z,-0.60
2018-03-18T03:54:57.504Z,-0.60
2018-03-18T03:56:02.956Z,-0.40
2018-03-18T03:57:07.401Z,-0.50
2018-03-18T03:58:11.922Z,-0.50
2018-03-18T03:59:17.791Z,-0.50
2018-03-18T04:00:22.121Z,-0.50
2018-03-18T04:01:27.406Z,-0.50
2018-03-18T04:02:32.469Z,-0.60
2018-03-18T04:03:37.656Z,-0.70
2018-03-18T04:04:42.105Z,-0.70
2018-03-18T04:05:46.956Z,-0.70
2018-03-18T04:06:51.338Z,-0.70
2018-03-18T04:07:56.569Z,-0.70
2018-03-18T04:09:01.811Z,-0.70
2018-03-18T04:10:06.597Z,-0.70
2018-03-18T04:11:11.529Z,-0.70
2018-03-18T04:12:20.392Z,-0.60
2018-03-18T04:13:24.829Z,-0.60
2018-03-18T04:14:29.289Z,-0.60
2018-03-18T04:15:33.990Z,-0.70
2018-03-18T04:16:39.170Z,-0.80
2018-03-18T04:17:44.753Z,-0.80
2018-03-18T04:18:49.066Z,-0.80
2018-03-18T04:19:53.626Z,-0.80
2018-03-18T04:20:58.089Z,-0.70
2018-03-18T04:22:02.671Z,-0.70
2018-03-18T04:23:07.164Z,-0.60
2018-03-18T04:24:11.559Z,-0.70
2018-03-18T04:25:16.493Z,-0.60
2018-03-18T04:26:21.477Z,-0.70
2018-03-18T04:27:27.356Z,-0.70
2018-03-18T04:28:32.630Z,-0.70
2018-03-18T04:29:37.940Z,-0.70
2018-03-18T04:30:43.161Z,-0.70
2018-03-18T04:31:48.165Z,-0.70
2018-03-18T04:32:52.573Z,-0.70
2018-03-18T04:33:57.096Z,-0.60
2018-03-18T04:35:01.622Z,-0.70
2018-03-18T04:36:06.177Z,-0.70
2018-03-18T04:37:10.723Z,-0.70
2018-03-18T04:38:15.446Z,-0.70
2018-03-18T04:39:20.042Z,-0.70
2018-03-18T04:40:24.486Z,-0.70
2018-03-18T04:41:29.034Z,-0.70
2018-03-18T04:42:34.251Z,-0.70
2018-03-18T04:43:39.831Z,-0.70
2018-03-18T04:44:45.526Z,-0.70
2018-03-18T04:45:50.769Z,-0.70
2018-03-18T04:46:55.348Z,-0.70
2018-03-18T04:47:59.642Z,-0.60
2018-03-18T04:49:04.288Z,-0.60
2018-03-18T04:50:09.353Z,-0.50
2018-03-18T04:51:13.903Z,-0.50
2018-03-18T04:52:18.273Z,-0.60
2018-03-18T04:53:22.626Z,-0.60
2018-03-18T04:54:27.025Z,-0.60
2018-03-18T04:55:31.711Z,-0.60
2018-03-18T04:56:36.700Z,-0.70
2018-03-18T04:57:41.781Z,-0.80
2018-03-18T04:58:47.033Z,-0.80
2018-03-18T04:59:51.441Z,-0.90
2018-03-18T05:00:56.178Z,-1.00
2018-03-18T05:02:01.596Z,-1.10
2018-03-18T05:03:06.255Z,-1.10
2018-03-18T05:04:10.593Z,-1.10
2018-03-18T05:05:15.007Z,-1.10
2018-03-18T05:06:19.680Z,-1.10
2018-03-18T05:07:24.246Z,-1.10
2018-03-18T05:08:28.862Z,-1.10
2018-03-18T05:09:33.261Z,-1.10
2018-03-18T05:10:37.768Z,-1.10
2018-03-18T05:11:43.017Z,-1.10
2018-03-18T05:12:47.620Z,-1.10
2018-03-18T05:13:52.065Z,-1.10
2018-03-18T05:14:57.553Z,-1.20
2018-03-18T05:16:02.006Z,-1.20
2018-03-18T05:17:07.544Z,-1.40
2018-03-18T05:18:12.054Z,-1.40
2018-03-18T05:19:17.397Z,-1.50
2018-03-18T05:20:21.913Z,-1.50
2018-03-18T05:21:26.465Z,-1.50
2018-03-18T05:22:31.025Z,-1.50
2018-03-18T05:23:36.221Z,-1.50
2018-03-18T05:24:40.621Z,-1.60
2018-03-18T05:25:45.497Z,-1.50
2018-03-18T05:26:50.266Z,-1.50
2018-03-18T05:27:54.743Z,-1.60
2018-03-18T05:28:59.316Z,-1.60
2018-03-18T05:30:04.966Z,-1.70
2018-03-18T05:31:09.488Z,-1.70
2018-03-18T05:32:14.173Z,-1.70
2018-03-18T05:33:19.011Z,-1.70
2018-03-18T05:34:23.883Z,-1.80
2018-03-18T05:35:28.649Z,-1.80
2018-03-18T05:36:33.753Z,-1.80
2018-03-18T05:37:38.170Z,-1.90
2018-03-18T05:38:44.209Z,-1.80
2018-03-18T05:39:48.767Z,-1.80
2018-03-18T05:40:53.155Z,-1.80
2018-03-18T05:41:57.631Z,-1.80
2018-03-18T05:43:02.295Z,-1.80
2018-03-18T05:44:07.054Z,-1.80
2018-03-18T05:45:11.892Z,-1.80
2018-03-18T05:46:17.416Z,-1.90
2018-03-18T05:47:21.995Z,-1.90
2018-03-18T05:48:26.565Z,-1.90
2018-03-18T05:49:32.070Z,-1.90
2018-03-18T05:50:36.924Z,-1.90
2018-03-18T05:51:43.301Z,-1.90
2018-03-18T05:52:48.231Z,-1.90
2018-03-18T05:53:53.080Z,-1.90
2018-03-18T05:54:57.864Z,-1.80
2018-03-18T05:56:02.873Z,-1.80
2018-03-18T05:57:07.588Z,-1.70
2018-03-18T05:58:12.325Z,-1.70
2018-03-18T05:59:16.866Z,-1.70
2018-03-18T06:00:21.651Z,-1.60
2018-03-18T06:01:26.767Z,-1.60
2018-03-18T06:02:32.199Z,-1.60
2018-03-18T06:03:36.993Z,-1.60
2018-03-18T06:04:44.027Z,-1.50
2018-03-18T06:05:48.555Z,-1.50
2018-03-18T06:06:54.054Z,-1.50
2018-03-18T06:07:58.919Z,-1.40
2018-03-18T06:09:03.988Z,-1.40
2018-03-18T06:10:08.659Z,-1.30
2018-03-18T06:11:13.507Z,-1.20
2018-03-18T06:12:19.100Z,-1.20
2018-03-18T06:13:23.711Z,-1.10
2018-03-18T06:14:28.333Z,-1.20
2018-03-18T06:15:33.761Z,-1.20
2018-03-18T06:16:38.727Z,-1.20
2018-03-18T06:17:45.518Z,-1.20
2018-03-18T06:18:50.430Z,-1.20
2018-03-18T06:19:55.015Z,-1.20
2018-03-18T06:21:01.787Z,-1.30
2018-03-18T06:22:07.370Z,-1.30
2018-03-18T06:23:12.056Z,-1.30
2018-03-18T06:24:16.881Z,-1.30
2018-03-18T06:25:22.098Z,-1.30
2018-03-18T06:26:27.850Z,-1.30
2018-03-18T06:27:32.976Z,-1.20
2018-03-18T06:28:38.538Z,-1.20
2018-03-18T06:29:43.986Z,-1.20
2018-03-18T06:30:49.240Z,-1.20
2018-03-18T06:31:54.015Z,-1.30
2018-03-18T06:32:58.785Z,-1.30
2018-03-18T06:34:04.909Z,-1.30
2018-03-18T06:35:09.865Z,-1.30
2018-03-18T06:36:15.718Z,-1.40
2018-03-18T06:37:22.432Z,-1.40
2018-03-18T06:38:28.803Z,-1.40
2018-03-18T06:39:35.275Z,-1.40
2018-03-18T06:40:42.509Z,-1.30
2018-03-18T06:41:47.673Z,-1.40
2018-03-18T06:42:55.277Z,-1.30
2018-03-18T06:44:00.307Z,-1.30
2018-03-18T06:45:05.483Z,-1.20
2018-03-18T06:46:12.976Z,-1.10
2018-03-18T06:47:18.758Z,-1.20
2018-03-18T06:48:24.758Z,-1.20
2018-03-18T06:49:31.002Z,-1.20
2018-03-18T06:50:36.587Z,-1.20
2018-03-18T06:51:43.580Z,-1.10
2018-03-18T06:52:49.921Z,-1.10
2018-03-18T06:53:58.162Z,-1.00
2018-03-18T06:55:03.645Z,-1.00
2018-03-18T06:56:11.823Z,-1.10
2018-03-18T06:57:18.550Z,-1.10
2018-03-18T06:58:24.177Z,-1.10
2018-03-18T06:59:31.898Z,-1.10
2018-03-18T07:00:40.848Z,-1.10
2018-03-18T07:01:49.290Z,-1.10
2018-03-18T07:02:55.333Z,-1.10
2018-03-18T07:04:04.985Z,-1.10
2018-03-18T07:05:12.022Z,-1.20
2018-03-18T07:06:21.565Z,-1.20
2018-03-18T07:07:28.314Z,-1.20
2018-03-18T07:08:34.314Z,-1.20
2018-03-18T07:09:40.347Z,-1.40
2018-03-18T07:10:46.970Z,-1.30
2018-03-18T07:11:53.166Z,-1.40
2018-03-18T07:13:00.564Z,-1.30
2018-03-18T07:14:07.850Z,-1.30
2018-03-18T07:15:13.784Z,-1.30
2018-03-18T07:16:19.109Z,-1.30
2018-03-18T07:17:24.540Z,-1.30
2018-03-18T07:18:30.702Z,-1.20
2018-03-18T07:19:36.612Z,-1.30
2018-03-18T07:20:41.673Z,-1.30
2018-03-18T07:21:47.996Z,-1.30
2018-03-18T07:22:53.331Z,-1.40
2018-03-18T07:23:58.562Z,-1.20
2018-03-18T07:25:04.387Z,-1.20
2018-03-18T07:26:10.007Z,-1.10
2018-03-18T07:27:15.269Z,-1.00
2018-03-18T07:28:20.639Z,-0.90
2018-03-18T07:29:26.669Z,-1.00
2018-03-18T07:30:31.849Z,-1.10
2018-03-18T07:31:40.577Z,-1.20
2018-03-18T07:32:47.797Z,-1.20
2018-03-18T07:33:56.717Z,-1.20
2018-03-18T07:35:05.266Z,-1.10
2018-03-18T07:36:11.631Z,-1.10
2018-03-18T07:37:20.363Z,-1.10
2018-03-18T07:38:28.391Z,-1.10
2018-03-18T07:39:34.886Z,-1.00
2018-03-18T07:40:41.624Z,-0.90
2018-03-18T07:41:48.485Z,-0.90
2018-03-18T07:42:54.705Z,-0.90
2018-03-18T07:44:04.496Z,-0.80
2018-03-18T07:45:11.177Z,-0.80
2018-03-18T07:46:17.615Z,-0.90
2018-03-18T07:47:23.645Z,-1.00
2018-03-18T07:48:30.598Z,-0.90
2018-03-18T07:49:35.957Z,-0.90
2018-03-18T07:50:41.014Z,-0.80
2018-03-18T07:51:47.120Z,-0.80
2018-03-18T07:52:54.071Z,-0.60
2018-03-18T07:54:00.972Z,-0.70
2018-03-18T07:55:07.076Z,-0.70
2018-03-18T07:56:14.893Z,-0.70
2018-03-18T07:57:21.191Z,-0.70
2018-03-18T07:58:29.202Z,-0.70
2018-03-18T07:59:35.427Z,-0.70
2018-03-18T08:00:44.109Z,-0.80
2018-03-18T08:01:49.487Z,-0.70
2018-03-18T08:02:59.309Z,-0.70
2018-03-18T08:04:04.763Z,-0.80
2018-03-18T08:05:13.205Z,-0.80
2018-03-18T08:06:19.616Z,-0.80
2018-03-18T08:07:28.268Z,-0.70
2018-03-18T08:08:34.038Z,-0.70
2018-03-18T08:09:38.982Z,-0.60
2018-03-18T08:10:44.352Z,-0.60
2018-03-18T08:11:49.735Z,-0.60
2018-03-18T08:12:56.292Z,-0.70
2018-03-18T08:14:02.361Z,-0.70
2018-03-18T08:15:08.595Z,-0.60
2018-03-18T08:16:15.785Z,-0.60
2018-03-18T08:17:21.100Z,-0.50
2018-03-18T08:18:26.012Z,-0.40
2018-03-18T08:19:31.280Z,-0.50
2018-03-18T08:20:38.945Z,-0.50
2018-03-18T08:21:45.765Z,-0.60
2018-03-18T08:22:51.518Z,-0.50
2018-03-18T08:23:59.335Z,-0.60
2018-03-18T08:25:05.076Z,-0.50
2018-03-18T08:26:10.431Z,-0.50
2018-03-18T08:27:15.553Z,-0.40
2018-03-18T08:28:21.689Z,-0.30
2018-03-18T08:29:27.640Z,-0.30
2018-03-18T08:30:34.563Z,-0.30
2018-03-18T08:31:39.641Z,-0.30
2018-03-18T08:32:44.867Z,-0.40
2018-03-18T08:33:51.831Z,-0.50
2018-03-18T08:34:59.453Z,-0.50
2018-03-18T08:36:05.501Z,-0.50
2018-03-18T08:37:12.262Z,-0.50
2018-03-18T08:38:18.097Z,-0.40
2018-03-18T08:39:23.799Z,-0.30
2018-03-18T08:40:28.993Z,-0.30
2018-03-18T08:41:34.436Z,-0.30
2018-03-18T08:42:39.910Z,-0.20
2018-03-18T08:43:46.095Z,-0.20
2018-03-18T08:44:52.566Z,-0.20
2018-03-18T08:45:57.584Z,-0.20
2018-03-18T08:47:03.332Z,-0.10
2018-03-18T08:50:17.995Z,0.20
2018-03-18T08:51:23.992Z,0.30
2018-03-18T08:52:29.568Z,0.30
2018-03-18T08:53:34.963Z,0.30
2018-03-18T08:54:40.117Z,0.30
2018-03-18T08:55:45.294Z,0.20
2018-03-18T08:56:50.521Z,0.20
2018-03-18T08:57:56.223Z,0.20
2018-03-18T08:59:01.980Z,0.20
2018-03-18T09:00:08.995Z,0.30
2018-03-18T09:01:14.120Z,0.40
2018-03-18T09:02:19.694Z,0.40
2018-03-18T09:03:24.561Z,0.50
2018-03-18T09:04:29.455Z,0.50
2018-03-18T09:05:36.306Z,0.30
2018-03-18T09:06:41.664Z,0.20
2018-03-18T09:07:48.164Z,0.40
2018-03-18T09:08:53.590Z,0.40
2018-03-18T09:09:58.897Z,0.50
2018-03-18T09:11:04.114Z,0.40
2018-03-18T09:12:09.048Z,0.40
2018-03-18T09:13:14.968Z,0.50
2018-03-18T09:14:19.892Z,0.50
2018-03-18T09:15:24.857Z,0.50
2018-03-18T09:16:29.708Z,0.60
2018-03-18T09:17:34.568Z,0.50
2018-03-18T09:18:39.403Z,0.60
2018-03-18T09:19:44.402Z,0.60
2018-03-18T09:20:49.405Z,0.60
2018-03-18T09:21:54.893Z,0.70
2018-03-18T09:22:59.659Z,0.70
2018-03-18T09:24:04.640Z,0.70
2018-03-18T09:25:11.114Z,0.80
2018-03-18T09:26:19.089Z,0.90
2018-03-18T09:27:25.961Z,0.90
2018-03-18T09:28:30.701Z,0.90
2018-03-18T09:29:36.366Z,1.00
2018-03-18T09:30:42.058Z,1.10
2018-03-18T09:31:50.667Z,1.10
2018-03-18T09:32:55.838Z,1.00
2018-03-18T09:34:00.522Z,1.00
2018-03-18T09:35:06.090Z,1.20
2018-03-18T09:36:10.970Z,1.20
2018-03-18T09:37:16.575Z,1.30
2018-03-18T09:38:22.225Z,1.40
2018-03-18T09:39:27.103Z,1.30
2018-03-18T09:40:32.004Z,1.30
2018-03-18T09:41:37.965Z,1.30
2018-03-18T09:42:42.792Z,1.30
2018-03-18T09:43:48.733Z,1.40
2018-03-18T09:44:53.477Z,1.50
2018-03-18T09:45:58.901Z,1.60
2018-03-18T09:47:04.292Z,1.70
2018-03-18T09:48:09.799Z,1.80
2018-03-18T09:49:14.906Z,1.80
2018-03-18T09:50:19.951Z,1.80
2018-03-18T09:51:24.830Z,1.70
2018-03-18T09:52:30.422Z,1.70
2018-03-18T09:53:37.131Z,1.70
2018-03-18T09:54:42.461Z,1.70
2018-03-18T09:55:48.278Z,1.80
2018-03-18T09:56:54.111Z,1.90
2018-03-18T09:57:59.889Z,1.90
2018-03-18T09:59:05.779Z,1.80
2018-03-18T10:00:14.320Z,1.90
2018-03-18T10:01:21.165Z,1.90
2018-03-18T10:02:27.378Z,2.00
2018-03-18T10:03:32.409Z,2.00
2018-03-18T10:04:41.462Z,2.00
2018-03-18T10:05:50.702Z,1.90
2018-03-18T10:06:58.032Z,1.90
2018-03-18T10:08:03.626Z,1.70
2018-03-18T10:09:09.936Z,1.70
2018-03-18T10:10:16.261Z,1.70
2018-03-18T10:11:22.199Z,1.70
2018-03-18T10:12:29.748Z,1.60
2018-03-18T10:13:38.066Z,1.50
2018-03-18T10:14:44.570Z,1.50
2018-03-18T10:15:50.753Z,1.60
2018-03-18T10:16:56.522Z,1.50
2018-03-18T10:18:01.202Z,1.50
2018-03-18T10:19:08.978Z,1.50
2018-03-18T10:20:15.342Z,1.50
2018-03-18T10:21:21.903Z,1.50
2018-03-18T10:22:26.849Z,1.40
2018-03-18T10:23:32.933Z,1.40
2018-03-18T10:24:40.115Z,1.50
2018-03-18T10:25:47.546Z,1.50
2018-03-18T10:26:52.319Z,1.50
2018-03-18T10:27:58.143Z,1.60
2018-03-18T10:29:03.023Z,1.60
2018-03-18T10:30:09.981Z,1.50
2018-03-18T10:31:15.596Z,1.60
2018-03-18T10:32:20.380Z,1.60
2018-03-18T10:33:25.610Z,1.80
2018-03-18T10:34:30.376Z,1.90
2018-03-18T10:35:36.197Z,1.90
2018-03-18T10:36:41.711Z,2.10
2018-03-18T10:37:46.625Z,2.00
2018-03-18T10:38:51.785Z,2.20
2018-03-18T10:39:59.389Z,2.30
2018-03-18T10:41:05.062Z,2.30
2018-03-18T10:42:09.871Z,2.30
2018-03-18T10:43:14.749Z,2.30
2018-03-18T10:44:20.827Z,2.30
2018-03-18T10:45:25.587Z,2.30
2018-03-18T10:46:31.325Z,2.30
2018-03-18T10:47:36.279Z,2.30
2018-03-18T10:48:41.933Z,2.10
2018-03-18T10:49:46.632Z,2.10
2018-03-18T10:50:52.948Z,2.10
2018-03-18T10:51:57.962Z,2.10
2018-03-18T10:53:02.804Z,2.00
2018-03-18T10:54:07.602Z,2.10
2018-03-18T10:55:13.371Z,2.10
2018-03-18T10:56:18.118Z,2.20
2018-03-18T10:57:23.906Z,2.40
2018-03-18T10:58:28.798Z,2.40
2018-03-18T10:59:33.641Z,2.40
2018-03-18T11:00:42.470Z,2.50
2018-03-18T11:01:49.464Z,2.60
2018-03-18T11:02:56.600Z,2.60
2018-03-18T11:04:06.333Z,2.70
2018-03-18T11:05:12.450Z,2.80
2018-03-18T11:06:17.831Z,2.90
2018-03-18T11:07:23.323Z,2.90
2018-03-18T11:08:29.632Z,2.90
2018-03-18T11:09:35.774Z,2.90
2018-03-18T11:10:42.065Z,3.00
2018-03-18T11:11:51.018Z,3.20
2018-03-18T11:12:57.219Z,3.10
2018-03-18T11:14:04.153Z,3.10
2018-03-18T11:15:09.403Z,3.00
2018-03-18T11:16:14.198Z,3.00
2018-03-18T11:17:19.835Z,3.10
2018-03-18T11:18:25.480Z,3.00
2018-03-18T11:19:30.203Z,3.10
2018-03-18T11:20:35.816Z,3.00
2018-03-18T11:21:40.718Z,3.00
2018-03-18T11:22:45.974Z,2.90
2018-03-18T11:23:52.168Z,2.90
2018-03-18T11:24:58.283Z,2.80
2018-03-18T11:26:04.033Z,2.80
2018-03-18T11:27:08.979Z,2.90
2018-03-18T11:28:13.924Z,2.90
2018-03-18T11:29:18.786Z,3.00
2018-03-18T11:30:23.740Z,3.10
2018-03-18T11:31:32.109Z,3.10
2018-03-18T11:32:36.800Z,3.20
2018-03-18T11:33:44.700Z,3.20
2018-03-18T11:34:49.370Z,3.10
2018-03-18T11:35:55.200Z,3.30
2018-03-18T11:37:00.215Z,3.30
2018-03-18T11:38:05.550Z,3.30
2018-03-18T11:39:10.632Z,3.40
2018-03-18T11:40:17.418Z,3.50
2018-03-18T11:41:22.540Z,3.50
2018-03-18T11:42:28.124Z,3.60
2018-03-18T11:43:34.533Z,3.60
2018-03-18T11:44:40.037Z,3.60
2018-03-18T11:45:45.433Z,3.60
2018-03-18T11:46:50.091Z,3.60
2018-03-18T11:47:55.003Z,3.70
2018-03-18T11:49:01.875Z,3.70
2018-03-18T11:50:09.553Z,3.70
2018-03-18T11:51:16.571Z,3.80
2018-03-18T11:52:23.594Z,3.70
2018-03-18T11:53:31.336Z,3.60
2018-03-18T11:54:38.336Z,3.50
2018-03-18T11:55:43.822Z,3.20
2018-03-18T11:56:48.587Z,3.20
2018-03-18T11:57:54.180Z,3.30
2018-03-18T11:58:58.836Z,3.20
2018-03-18T12:00:03.665Z,3.30
2018-03-18T12:01:09.193Z,3.40
2018-03-18T12:02:14.795Z,3.30
2018-03-18T12:03:19.514Z,3.30
2018-03-18T12:04:24.483Z,3.20
2018-03-18T12:05:29.798Z,3.20
2018-03-18T12:06:36.587Z,3.20
2018-03-18T12:07:42.179Z,3.10
2018-03-18T12:09:05.583Z,3.00
2018-03-18T12:10:10.616Z,3.00
2018-03-18T12:11:15.354Z,3.00
2018-03-18T12:12:20.993Z,3.10
2018-03-18T12:13:25.761Z,3.00
2018-03-18T12:14:30.610Z,3.00
2018-03-18T12:15:35.861Z,3.00
2018-03-18T12:16:40.760Z,3.00
2018-03-18T12:17:45.554Z,3.00
2018-03-18T12:18:51.020Z,2.90
2018-03-18T12:19:55.967Z,2.90
2018-03-18T12:21:01.339Z,2.80
2018-03-18T12:22:07.848Z,2.80
2018-03-18T12:23:12.727Z,2.80
2018-03-18T12:24:17.551Z,2.80
2018-03-18T12:25:22.317Z,2.80
2018-03-18T12:26:27.975Z,2.80
2018-03-18T12:27:33.600Z,2.70
2018-03-18T12:28:38.248Z,2.70
2018-03-18T12:29:44.711Z,2.50
2018-03-18T12:30:50.025Z,2.50
2018-03-18T12:31:55.618Z,2.50
2018-03-18T12:33:01.366Z,2.50
2018-03-18T12:34:06.577Z,2.60
2018-03-18T12:35:11.486Z,2.60
2018-03-18T12:36:16.218Z,2.60
2018-03-18T12:37:21.865Z,2.60
2018-03-18T12:38:26.684Z,2.60
2018-03-18T12:39:40.134Z,2.60
2018-03-18T12:40:52.302Z,2.70
2018-03-18T12:41:59.997Z,2.70
2018-03-18T12:43:37.476Z,2.80
2018-03-18T12:44:44.771Z,2.80
2018-03-18T12:45:54.139Z,2.90
2018-03-18T12:47:01.601Z,3.00
2018-03-18T12:48:08.350Z,3.20
2018-03-18T12:49:14.911Z,3.20
2018-03-18T12:50:21.418Z,3.30
2018-03-18T12:51:27.212Z,3.20
2018-03-18T12:52:32.878Z,3.20
2018-03-18T12:53:37.629Z,3.40
2018-03-18T12:54:42.957Z,3.50
2018-03-18T12:55:49.680Z,3.40
2018-03-18T12:56:56.928Z,3.40
2018-03-18T12:58:03.575Z,3.40
2018-03-18T12:59:09.996Z,3.50
2018-03-18T13:00:16.392Z,3.60
2018-03-18T13:01:22.084Z,3.70
2018-03-18T13:02:28.780Z,3.70
2018-03-18T13:03:34.544Z,3.90
2018-03-18T13:04:41.863Z,3.80
2018-03-18T13:05:48.219Z,3.80
2018-03-18T13:06:55.052Z,3.90
2018-03-18T13:08:01.343Z,4.00
2018-03-18T13:09:07.050Z,4.00
2018-03-18T13:10:15.597Z,3.90
2018-03-18T13:11:20.616Z,3.90
2018-03-18T13:12:25.324Z,4.00
2018-03-18T13:13:31.732Z,4.00
2018-03-18T13:14:37.355Z,4.10
2018-03-18T13:15:42.146Z,4.20
2018-03-18T13:16:46.950Z,4.20
2018-03-18T13:17:51.555Z,4.30
2018-03-18T13:18:57.818Z,4.30
2018-03-18T13:20:02.695Z,4.30
2018-03-18T13:21:08.343Z,4.40
2018-03-18T13:22:15.425Z,4.40
2018-03-18T13:23:21.508Z,4.60
2018-03-18T13:24:26.255Z,4.60
2018-03-18T13:25:30.926Z,4.70
2018-03-18T13:26:35.608Z,4.90
2018-03-18T13:27:40.624Z,5.10
2018-03-18T13:28:46.229Z,5.20
2018-03-18T13:29:51.017Z,5.30
2018-03-18T13:30:56.723Z,5.40
2018-03-18T13:32:01.715Z,5.30
2018-03-18T13:33:06.448Z,5.20
2018-03-18T13:34:11.639Z,5.30
2018-03-18T13:35:16.342Z,5.30
2018-03-18T13:36:22.515Z,5.60
2018-03-18T13:37:27.463Z,5.60
2018-03-18T13:38:32.518Z,5.70
2018-03-18T13:39:37.428Z,5.60
2018-03-18T13:40:42.347Z,5.60
2018-03-18T13:41:47.182Z,5.60
2018-03-18T13:42:52.958Z,5.40
2018-03-18T13:43:58.801Z,5.40
2018-03-18T13:45:05.138Z,5.40
2018-03-18T13:46:10.677Z,5.70
2018-03-18T13:47:15.482Z,5.70
2018-03-18T13:48:20.242Z,5.80
2018-03-18T13:49:30.517Z,5.70
2018-03-18T13:50:35.568Z,5.70
2018-03-18T13:51:42.154Z,5.70
2018-03-18T13:52:49.012Z,5.70
2018-03-18T13:53:55.574Z,5.60
2018-03-18T13:55:02.740Z,5.70
2018-03-18T13:56:08.516Z,5.60
2018-03-18T13:57:16.952Z,5.60
2018-03-18T13:58:23.562Z,5.40
2018-03-18T13:59:29.642Z,5.40
2018-03-18T14:00:35.778Z,5.30
2018-03-18T14:01:41.961Z,5.30
2018-03-18T14:02:48.704Z,5.30
2018-03-18T14:03:54.904Z,5.50
2018-03-18T14:05:01.674Z,5.60
2018-03-18T14:06:08.244Z,5.70
2018-03-18T14:07:13.842Z,5.70
2018-03-18T14:08:20.304Z,5.60
2018-03-18T14:09:25.835Z,5.50
2018-03-18T14:10:35.166Z,5.60
2018-03-18T14:11:41.766Z,5.50
2018-03-18T14:12:48.784Z,5.70
2018-03-18T14:13:56.371Z,5.80
2018-03-18T14:15:02.699Z,5.70
2018-03-18T14:16:09.087Z,5.80
2018-03-18T14:17:16.010Z,5.90
2018-03-18T14:18:22.553Z,6.00
2018-03-18T14:19:28.051Z,6.10
2018-03-18T14:20:34.045Z,6.10
2018-03-18T14:21:41.826Z,6.10